aviador You're here:

KDAA Decoded Metar

FORT BELVOIR/DAV in VA, USA
Report Time2018-07-16 07:56:00
UTC Time2018-07-16 08:23:50
Flight Rules vfr VFR
WindCalm
Visibility9999 m
Phenomena:N/A
Clouds:Scattered 150 Hf
Expected CloudBase > 400 ft AGL from Temp-Dew spread
CeilingNone
Temp22°C (ISA +7)
Dew Point21°C (94% RH)
QNH1016 hPa
Density Alt1,125 ft
Elevation69 ft
Report Wrong Elevation
Raw Report
KDAA 160756Z AUTO 00000KT 9SM SCT150 22/21 A3000 RMK AO2 SLP162
T02180214 PNO $=

Extra information for KDAA:More info

Metar Taf Metar & Taf Last 4 Metars F.Rules Stats Wind Profile Meteogram Temp Stats Airport Information Weather charts Add Link Nearby VenuesMetar ALERT Operation Metar Decoded Social comments

AIRNAV info for KDAA